Station Historical Data
Daily Summary for July 2, 2012 Units:  Both    English   Metric
« Previous Day
Next Day »
Daily Weekly Monthly Yearly Custom
  High: Low: Average:
Temperature: 95.5 °F /  35.3 °C 74.5 °F /  23.6 °C 84.1 °F /  28.9 °C
Dew Point: 74.6 °F /  23.7 °C 66.0 °F /  18.9 °C 70.6 °F /  21.4 °C
Humidity: 87% 39% 66%
Wind Speed: 12.0mph /  19.3km/h - 3.2mph /  5.1km/h
Wind Gust: 16.0mph /  25.7km/h - -
Wind- - SSW
Pressure: 30.03 in /  1016.8 hPa 29.90 in /  1012.4 hPa -
Precipitation: 0.00 in /  0 mm    
Historical Graphs
 
 
Tabular Data for July 2, 2012
Time Temperature Dew Point Pressure Wind Wind Speed Wind Gust Humidity Rainfall Rate (Hourly) Conditions
00:00 83.3 °F /  28.5 °C 70.8 °F /  21.6 °C 29.92in /  1013.1hPa SW 1.0mph /  1.6km/h 1.0mph /  1.6km/h 66% 0.00in /  0mm
00:05 83.2 °F /  28.4 °C 70.7 °F /  21.5 °C 29.92in /  1013.1hPa Calm   1.0mph /  1.6km/h 66% 0.00in /  0mm
00:10 83.0 °F /  28.3 °C 70.9 °F /  21.6 °C 29.92in /  1013.1hPa Calm     67% 0.00in /  0mm
00:15 82.7 °F /  28.2 °C 71.5 °F /  21.9 °C 29.92in /  1013.1hPa Calm     69% 0.00in /  0mm
00:20 82.3 °F /  27.9 °C 71.5 °F /  21.9 °C 29.92in /  1013.1hPa Calm     70% 0.00in /  0mm
00:25 82.1 °F /  27.8 °C 72.2 °F /  22.3 °C 29.92in /  1013.1hPa Calm   1.0mph /  1.6km/h 72% 0.00in /  0mm
00:30 81.7 °F /  27.6 °C 72.2 °F /  22.3 °C 29.92in /  1013.1hPa SW 3.0mph /  4.8km/h 3.0mph /  4.8km/h 73% 0.00in /  0mm
00:35 81.4 °F /  27.4 °C 70.7 °F /  21.5 °C 29.92in /  1013.1hPa Calm   3.0mph /  4.8km/h 70% 0.00in /  0mm
00:40 81.4 °F /  27.4 °C 70.7 °F /  21.5 °C 29.92in /  1013.1hPa SW 1.0mph /  1.6km/h 1.0mph /  1.6km/h 70% 0.00in /  0mm
00:45 81.3 °F /  27.4 °C 70.6 °F /  21.4 °C 29.92in /  1013.1hPa Calm   1.0mph /  1.6km/h 70% 0.00in /  0mm
00:50 81.2 °F /  27.3 °C 70.5 °F /  21.4 °C 29.92in /  1013.1hPa SSW 1.0mph /  1.6km/h 1.0mph /  1.6km/h 70% 0.00in /  0mm
00:55 81.1 °F /  27.3 °C 70.4 °F /  21.3 °C 29.92in /  1013.1hPa SSW 1.0mph /  1.6km/h 1.0mph /  1.6km/h 70% 0.00in /  0mm
01:00 81.1 °F /  27.3 °C 70.4 °F /  21.3 °C 29.92in /  1013.1hPa SW 1.0mph /  1.6km/h 2.0mph /  3.2km/h 70% 0.00in /  0mm
01:05 81.2 °F /  27.3 °C 70.5 °F /  21.4 °C 29.92in /  1013.1hPa WSW 2.0mph /  3.2km/h 2.0mph /  3.2km/h 70% 0.00in /  0mm
01:10 81.2 °F /  27.3 °C 70.9 °F /  21.6 °C 29.91in /  1012.8hPa WSW 1.0mph /  1.6km/h 3.0mph /  4.8km/h 71% 0.00in /  0mm
01:15 81.2 °F /  27.3 °C 70.9 °F /  21.6 °C 29.91in /  1012.8hPa WSW 1.0mph /  1.6km/h 2.0mph /  3.2km/h 71% 0.00in /  0mm
01:20 81.0 °F /  27.2 °C 70.7 °F /  21.5 °C 29.91in /  1012.8hPa West 2.0mph /  3.2km/h 2.0mph /  3.2km/h 71% 0.00in /  0mm
01:25 80.8 °F /  27.1 °C 70.9 °F /  21.6 °C 29.91in /  1012.8hPa Calm   1.0mph /  1.6km/h 72% 0.00in /  0mm
01:30 80.4 °F /  26.9 °C 71.0 °F /  21.7 °C 29.92in /  1013.1hPa WSW 1.0mph /  1.6km/h 1.0mph /  1.6km/h 73% 0.00in /  0mm
01:35 80.2 °F /  26.8 °C 71.6 °F /  22 °C 29.91in /  1012.8hPa WSW 1.0mph /  1.6km/h 1.0mph /  1.6km/h 75% 0.00in /  0mm
01:40 79.9 °F /  26.6 °C 71.3 °F /  21.8 °C 29.92in /  1013.1hPa Calm     75% 0.00in /  0mm
01:45 79.6 °F /  26.4 °C 71.0 °F /  21.7 °C 29.92in /  1013.1hPa Calm   1.0mph /  1.6km/h 75% 0.00in /  0mm
01:50 79.5 °F /  26.4 °C 70.9 °F /  21.6 °C 29.92in /  1013.1hPa Calm   1.0mph /  1.6km/h 75% 0.00in /  0mm
01:55 79.4 °F /  26.3 °C 70.4 °F /  21.3 °C 29.92in /  1013.1hPa Calm     74% 0.00in /  0mm
02:01 79.3 °F /  26.3 °C 70.3 °F /  21.3 °C 29.92in /  1013.1hPa Calm     74% 0.00in /  0mm
02:06 79.4 °F /  26.3 °C 70.0 °F /  21.1 °C 29.91in /  1012.8hPa WSW 1.0mph /  1.6km/h 1.0mph /  1.6km/h 73% 0.00in /  0mm
02:11 79.6 °F /  26.4 °C 70.2 °F /  21.2 °C 29.92in /  1013.1hPa WSW 1.0mph /  1.6km/h 1.0mph /  1.6km/h 73% 0.00in /  0mm
02:16 79.5 °F /  26.4 °C 70.1 °F /  21.2 °C 29.92in /  1013.1hPa West 1.0mph /  1.6km/h 1.0mph /  1.6km/h 73% 0.00in /  0mm
02:21 79.5 °F /  26.4 °C 70.1 °F /  21.2 °C 29.92in /  1013.1hPa WNW 2.0mph /  3.2km/h 2.0mph /  3.2km/h 73% 0.00in /  0mm
02:26 79.3 °F /  26.3 °C 69.9 °F /  21.1 °C 29.92in /  1013.1hPa WNW 1.0mph /  1.6km/h 1.0mph /  1.6km/h 73% 0.00in /  0mm
02:31 79.4 °F /  26.3 °C 69.6 °F /  20.9 °C 29.92in /  1013.1hPa WNW 1.0mph /  1.6km/h 1.0mph /  1.6km/h 72% 0.00in /  0mm
02:36 79.3 °F /  26.3 °C 69.5 °F /  20.8 °C 29.92in /  1013.1hPa Calm     72% 0.00in /  0mm
02:41 79.0 °F /  26.1 °C 69.2 °F /  20.7 °C 29.92in /  1013.1hPa Calm     72% 0.00in /  0mm
02:46 78.6 °F /  25.9 °C 69.2 °F /  20.7 °C 29.92in /  1013.1hPa Calm     73% 0.00in /  0mm
02:51 78.5 °F /  25.8 °C 69.5 °F /  20.8 °C 29.92in /  1013.1hPa Calm     74% 0.00in /  0mm
02:56 78.6 °F /  25.9 °C 70.4 °F /  21.3 °C 29.92in /  1013.1hPa Calm     76% 0.00in /  0mm
03:01 78.5 °F /  25.8 °C 70.7 °F /  21.5 °C 29.92in /  1013.1hPa Calm   1.0mph /  1.6km/h 77% 0.00in /  0mm
03:06 78.1 °F /  25.6 °C 70.3 °F /  21.3 °C 29.92in /  1013.1hPa Calm   1.0mph /  1.6km/h 77% 0.00in /  0mm
03:11 78.0 °F /  25.6 °C 70.6 °F /  21.4 °C 29.92in /  1013.1hPa Calm     78% 0.00in /  0mm
03:16 77.9 °F /  25.5 °C 70.1 °F /  21.2 °C 29.92in /  1013.1hPa Calm     77% 0.00in /  0mm
03:21 78.0 °F /  25.6 °C 69.8 °F /  21 °C 29.92in /  1013.1hPa Calm   1.0mph /  1.6km/h 76% 0.00in /  0mm
03:26 78.0 °F /  25.6 °C 69.8 °F /  21 °C 29.92in /  1013.1hPa Calm   1.0mph /  1.6km/h 76% 0.00in /  0mm
03:31 77.9 °F /  25.5 °C 70.1 °F /  21.2 °C 29.92in /  1013.1hPa Calm     77% 0.00in /  0mm
03:36 77.9 °F /  25.5 °C 70.1 °F /  21.2 °C 29.92in /  1013.1hPa Calm   1.0mph /  1.6km/h 77% 0.00in /  0mm
03:41 77.6 °F /  25.3 °C 69.8 °F /  21 °C 29.92in /  1013.1hPa Calm   1.0mph /  1.6km/h 77% 0.00in /  0mm
03:46 77.6 °F /  25.3 °C 69.8 °F /  21 °C 29.92in /  1013.1hPa WNW 2.0mph /  3.2km/h 2.0mph /  3.2km/h 77% 0.00in /  0mm
03:51 77.9 °F /  25.5 °C 69.7 °F /  20.9 °C 29.93in /  1013.4hPa North 2.0mph /  3.2km/h 3.0mph /  4.8km/h 76% 0.00in /  0mm
03:56 77.8 °F /  25.4 °C 69.6 °F /  20.9 °C 29.93in /  1013.4hPa NNE 1.0mph /  1.6km/h 2.0mph /  3.2km/h 76% 0.00in /  0mm
04:01 77.6 °F /  25.3 °C 69.4 °F /  20.8 °C 29.93in /  1013.4hPa NNW 2.0mph /  3.2km/h 2.0mph /  3.2km/h 76% 0.00in /  0mm
04:06 77.6 °F /  25.3 °C 69.4 °F /  20.8 °C 29.93in /  1013.4hPa NNW 2.0mph /  3.2km/h 2.0mph /  3.2km/h 76% 0.00in /  0mm
04:11 77.7 °F /  25.4 °C 69.5 °F /  20.8 °C 29.93in /  1013.4hPa NW 2.0mph /  3.2km/h 2.0mph /  3.2km/h 76% 0.00in /  0mm
04:16 77.8 °F /  25.4 °C 69.6 °F /  20.9 °C 29.93in /  1013.4hPa NNW 1.0mph /  1.6km/h 3.0mph /  4.8km/h 76% 0.00in /  0mm
04:21 78.1 °F /  25.6 °C 69.5 °F /  20.8 °C 29.93in /  1013.4hPa NW 1.0mph /  1.6km/h 2.0mph /  3.2km/h 75% 0.00in /  0mm
04:26 78.3 °F /  25.7 °C 69.7 °F /  20.9 °C 29.93in /  1013.4hPa NW 1.0mph /  1.6km/h 2.0mph /  3.2km/h 75% 0.00in /  0mm
04:31 78.4 °F /  25.8 °C 69.8 °F /  21 °C 29.93in /  1013.4hPa NW 1.0mph /  1.6km/h 1.0mph /  1.6km/h 75% 0.00in /  0mm
04:36 78.4 °F /  25.8 °C 69.8 °F /  21 °C 29.93in /  1013.4hPa NW 1.0mph /  1.6km/h 3.0mph /  4.8km/h 75% 0.00in /  0mm
04:41 78.2 °F /  25.7 °C 69.6 °F /  20.9 °C 29.93in /  1013.4hPa Calm   1.0mph /  1.6km/h 75% 0.00in /  0mm
04:46 77.9 °F /  25.5 °C 69.7 °F /  20.9 °C 29.93in /  1013.4hPa NW 1.0mph /  1.6km/h 2.0mph /  3.2km/h 76% 0.00in /  0mm
04:51 77.7 °F /  25.4 °C 69.9 °F /  21.1 °C 29.93in /  1013.4hPa NW 1.0mph /  1.6km/h 1.0mph /  1.6km/h 77% 0.00in /  0mm
04:56 77.5 °F /  25.3 °C 69.7 °F /  20.9 °C 29.93in /  1013.4hPa Calm   2.0mph /  3.2km/h 77% 0.00in /  0mm
05:01 77.4 °F /  25.2 °C 69.6 °F /  20.9 °C 29.93in /  1013.4hPa Calm     77% 0.00in /  0mm
05:06 77.3 °F /  25.2 °C 69.9 °F /  21.1 °C 29.93in /  1013.4hPa WNW 1.0mph /  1.6km/h 1.0mph /  1.6km/h 78% 0.00in /  0mm
05:11 77.3 °F /  25.2 °C 69.9 °F /  21.1 °C 29.93in /  1013.4hPa West 1.0mph /  1.6km/h 1.0mph /  1.6km/h 78% 0.00in /  0mm
05:16 77.3 °F /  25.2 °C 69.9 °F /  21.1 °C 29.93in /  1013.4hPa Calm   1.0mph /  1.6km/h 78% 0.00in /  0mm
05:21 77.3 °F /  25.2 °C 69.9 °F /  21.1 °C 29.93in /  1013.4hPa West 1.0mph /  1.6km/h 2.0mph /  3.2km/h 78% 0.00in /  0mm
05:26 77.2 °F /  25.1 °C 69.8 °F /  21 °C 29.93in /  1013.4hPa West 1.0mph /  1.6km/h 1.0mph /  1.6km/h 78% 0.00in /  0mm
05:31 77.0 °F /  25 °C 70.0 °F /  21.1 °C 29.93in /  1013.4hPa Calm     79% 0.00in /  0mm
05:37 76.8 °F /  24.9 °C 69.8 °F /  21 °C 29.94in /  1013.8hPa NNE 1.0mph /  1.6km/h 2.0mph /  3.2km/h 79% 0.00in /  0mm
05:42 76.8 °F /  24.9 °C 69.8 °F /  21 °C 29.94in /  1013.8hPa Calm   1.0mph /  1.6km/h 79% 0.00in /  0mm
05:47 76.4 °F /  24.7 °C 69.8 °F /  21 °C 29.94in /  1013.8hPa Calm     80% 0.00in /  0mm
05:52 76.2 °F /  24.6 °C 69.9 °F /  21.1 °C 29.94in /  1013.8hPa Calm     81% 0.00in /  0mm
05:57 76.1 °F /  24.5 °C 70.2 °F /  21.2 °C 29.94in /  1013.8hPa Calm     82% 0.00in /  0mm
06:02 75.8 °F /  24.3 °C 70.6 °F /  21.4 °C 29.94in /  1013.8hPa Calm   1.0mph /  1.6km/h 84% 0.00in /  0mm
06:07 75.6 °F /  24.2 °C 70.4 °F /  21.3 °C 29.94in /  1013.8hPa Calm     84% 0.00in /  0mm
06:12 75.3 °F /  24.1 °C 70.5 °F /  21.4 °C 29.95in /  1014.1hPa Calm     85% 0.00in /  0mm
06:17 75.0 °F /  23.9 °C 70.2 °F /  21.2 °C 29.95in /  1014.1hPa Calm     85% 0.00in /  0mm
06:22 74.9 °F /  23.8 °C 70.1 °F /  21.2 °C 29.95in /  1014.1hPa NNE 1.0mph /  1.6km/h 1.0mph /  1.6km/h 85% 0.00in /  0mm
06:27 74.9 °F /  23.8 °C 69.7 °F /  20.9 °C 29.95in /  1014.1hPa Calm     84% 0.00in /  0mm
06:32 74.9 °F /  23.8 °C 70.1 °F /  21.2 °C 29.95in /  1014.1hPa Calm     85% 0.00in /  0mm
06:37 74.8 °F /  23.8 °C 70.3 °F /  21.3 °C 29.96in /  1014.4hPa Calm     86% 0.00in /  0mm
06:42 74.7 °F /  23.7 °C 70.2 °F /  21.2 °C 29.96in /  1014.4hPa NNE 1.0mph /  1.6km/h 1.0mph /  1.6km/h 86% 0.00in /  0mm
06:47 74.6 °F /  23.7 °C 70.5 °F /  21.4 °C 29.96in /  1014.4hPa Calm   1.0mph /  1.6km/h 87% 0.00in /  0mm
06:52 74.6 °F /  23.7 °C 70.5 °F /  21.4 °C 29.96in /  1014.4hPa Calm   1.0mph /  1.6km/h 87% 0.00in /  0mm
06:57 74.5 °F /  23.6 °C 70.4 °F /  21.3 °C 29.96in /  1014.4hPa WSW 2.0mph /  3.2km/h 2.0mph /  3.2km/h 87% 0.00in /  0mm
07:02 74.5 °F /  23.6 °C 70.0 °F /  21.1 °C 29.97in /  1014.8hPa Calm   1.0mph /  1.6km/h 86% 0.00in /  0mm
07:07 74.5 °F /  23.6 °C 70.0 °F /  21.1 °C 29.97in /  1014.8hPa Calm     86% 0.00in /  0mm
07:12 74.6 °F /  23.7 °C 70.1 °F /  21.2 °C 29.97in /  1014.8hPa WSW 1.0mph /  1.6km/h 1.0mph /  1.6km/h 86% 0.00in /  0mm
07:17 74.8 °F /  23.8 °C 70.3 °F /  21.3 °C 29.97in /  1014.8hPa West 1.0mph /  1.6km/h 2.0mph /  3.2km/h 86% 0.00in /  0mm
07:22 75.0 °F /  23.9 °C 70.2 °F /  21.2 °C 29.97in /  1014.8hPa Calm   1.0mph /  1.6km/h 85% 0.00in /  0mm
07:27 75.1 °F /  23.9 °C 70.3 °F /  21.3 °C 29.97in /  1014.8hPa West 1.0mph /  1.6km/h 1.0mph /  1.6km/h 85% 0.00in /  0mm
07:32 75.4 °F /  24.1 °C 70.2 °F /  21.2 °C 29.98in /  1015.1hPa WNW 1.0mph /  1.6km/h 1.0mph /  1.6km/h 84% 0.00in /  0mm
07:37 75.5 °F /  24.2 °C 70.3 °F /  21.3 °C 29.98in /  1015.1hPa West 1.0mph /  1.6km/h 2.0mph /  3.2km/h 84% 0.00in /  0mm
07:42 75.6 °F /  24.2 °C 70.4 °F /  21.3 °C 29.98in /  1015.1hPa Calm   1.0mph /  1.6km/h 84% 0.00in /  0mm
07:47 75.7 °F /  24.3 °C 70.2 °F /  21.2 °C 29.98in /  1015.1hPa WSW 1.0mph /  1.6km/h 1.0mph /  1.6km/h 83% 0.00in /  0mm
07:52 75.8 °F /  24.3 °C 70.6 °F /  21.4 °C 29.99in /  1015.5hPa SE 3.0mph /  4.8km/h 8.0mph /  12.9km/h 84% 0.00in /  0mm
07:57 76.6 °F /  24.8 °C 70.7 °F /  21.5 °C 29.99in /  1015.5hPa NE 3.0mph /  4.8km/h 11.0mph /  17.7km/h 82% 0.00in /  0mm
08:02 77.6 °F /  25.3 °C 70.6 °F /  21.4 °C 30.00in /  1015.8hPa East 3.0mph /  4.8km/h 6.0mph /  9.7km/h 79% 0.00in /  0mm
08:08 77.8 °F /  25.4 °C 70.8 °F /  21.6 °C 30.00in /  1015.8hPa ESE 1.0mph /  1.6km/h 4.0mph /  6.4km/h 79% 0.00in /  0mm
08:13 78.2 °F /  25.7 °C 71.2 °F /  21.8 °C 30.00in /  1015.8hPa ENE 3.0mph /  4.8km/h 3.0mph /  4.8km/h 79% 0.00in /  0mm
08:18 78.7 °F /  25.9 °C 71.3 °F /  21.8 °C 30.00in /  1015.8hPa SE 3.0mph /  4.8km/h 4.0mph /  6.4km/h 78% 0.00in /  0mm
08:23 79.0 °F /  26.1 °C 71.2 °F /  21.8 °C 30.00in /  1015.8hPa ESE 3.0mph /  4.8km/h 4.0mph /  6.4km/h 77% 0.00in /  0mm
08:28 79.5 °F /  26.4 °C 71.3 °F /  21.8 °C 30.00in /  1015.8hPa ESE 6.0mph /  9.7km/h 6.0mph /  9.7km/h 76% 0.00in /  0mm
08:33 80.1 °F /  26.7 °C 71.5 °F /  21.9 °C 30.00in /  1015.8hPa ESE 5.0mph /  8km/h 8.0mph /  12.9km/h 75% 0.00in /  0mm
08:38 80.5 °F /  26.9 °C 71.5 °F /  21.9 °C 30.00in /  1015.8hPa ESE 6.0mph /  9.7km/h 6.0mph /  9.7km/h 74% 0.00in /  0mm
08:43 80.7 °F /  27.1 °C 71.7 °F /  22.1 °C 30.00in /  1015.8hPa ESE 8.0mph /  12.9km/h 9.0mph /  14.5km/h 74% 0.00in /  0mm
08:48 80.7 °F /  27.1 °C 71.2 °F /  21.8 °C 30.00in /  1015.8hPa SE 8.0mph /  12.9km/h 8.0mph /  12.9km/h 73% 0.00in /  0mm
08:53 80.8 °F /  27.1 °C 71.7 °F /  22.1 °C 30.00in /  1015.8hPa ESE 9.0mph /  14.5km/h 12.0mph /  19.3km/h 74% 0.00in /  0mm
08:58 80.5 °F /  26.9 °C 71.5 °F /  21.9 °C 30.00in /  1015.8hPa East 3.0mph /  4.8km/h 9.0mph /  14.5km/h 74% 0.00in /  0mm
09:03 80.7 °F /  27.1 °C 71.7 °F /  22.1 °C 30.01in /  1016.1hPa SE 6.0mph /  9.7km/h 10.0mph /  16.1km/h 74% 0.00in /  0mm
09:08 81.0 °F /  27.2 °C 71.9 °F /  22.2 °C 30.02in /  1016.5hPa ESE 8.0mph /  12.9km/h 10.0mph /  16.1km/h 74% 0.00in /  0mm
09:13 80.9 °F /  27.2 °C 71.4 °F /  21.9 °C 30.01in /  1016.1hPa ESE 9.0mph /  14.5km/h 9.0mph /  14.5km/h 73% 0.00in /  0mm
09:18 81.2 °F /  27.3 °C 71.7 °F /  22.1 °C 30.01in /  1016.1hPa SSE 10.0mph /  16.1km/h 10.0mph /  16.1km/h 73% 0.00in /  0mm
09:23 81.6 °F /  27.6 °C 71.7 °F /  22.1 °C 30.01in /  1016.1hPa ESE 6.0mph /  9.7km/h 9.0mph /  14.5km/h 72% 0.00in /  0mm
09:28 81.6 °F /  27.6 °C 72.1 °F /  22.3 °C 30.01in /  1016.1hPa SE 7.0mph /  11.3km/h 10.0mph /  16.1km/h 73% 0.00in /  0mm
09:33 81.5 °F /  27.5 °C 71.6 °F /  22 °C 30.02in /  1016.5hPa SE 7.0mph /  11.3km/h 9.0mph /  14.5km/h 72% 0.00in /  0mm
09:38 81.2 °F /  27.3 °C 71.7 °F /  22.1 °C 30.01in /  1016.1hPa SSE 3.0mph /  4.8km/h 8.0mph /  12.9km/h 73% 0.00in /  0mm
09:43 81.1 °F /  27.3 °C 71.6 °F /  22 °C 30.01in /  1016.1hPa East 5.0mph /  8km/h 8.0mph /  12.9km/h 73% 0.00in /  0mm
09:48 81.1 °F /  27.3 °C 72.0 °F /  22.2 °C 30.01in /  1016.1hPa ESE 6.0mph /  9.7km/h 6.0mph /  9.7km/h 74% 0.00in /  0mm
09:53 80.8 °F /  27.1 °C 71.7 °F /  22.1 °C 30.01in /  1016.1hPa ESE 6.0mph /  9.7km/h 8.0mph /  12.9km/h 74% 0.00in /  0mm
09:58 80.7 °F /  27.1 °C 72.0 °F /  22.2 °C 30.00in /  1015.8hPa SE 4.0mph /  6.4km/h 8.0mph /  12.9km/h 75% 0.00in /  0mm
10:03 80.5 °F /  26.9 °C 71.8 °F /  22.1 °C 30.01in /  1016.1hPa ESE 8.0mph /  12.9km/h 9.0mph /  14.5km/h 75% 0.00in /  0mm
10:08 80.3 °F /  26.8 °C 71.7 °F /  22.1 °C 30.01in /  1016.1hPa ESE 4.0mph /  6.4km/h 8.0mph /  12.9km/h 75% 0.00in /  0mm
10:13 80.5 °F /  26.9 °C 72.2 °F /  22.3 °C 30.01in /  1016.1hPa ESE 6.0mph /  9.7km/h 6.0mph /  9.7km/h 76% 0.00in /  0mm
10:18 80.6 °F /  27 °C 72.3 °F /  22.4 °C 30.01in /  1016.1hPa SSE 7.0mph /  11.3km/h 7.0mph /  11.3km/h 76% 0.00in /  0mm
10:23 81.0 °F /  27.2 °C 72.3 °F /  22.4 °C 30.02in /  1016.5hPa SE 9.0mph /  14.5km/h 12.0mph /  19.3km/h 75% 0.00in /  0mm
10:28 81.0 °F /  27.2 °C 71.9 °F /  22.2 °C 30.02in /  1016.5hPa SE 4.0mph /  6.4km/h 10.0mph /  16.1km/h 74% 0.00in /  0mm
10:33 81.5 °F /  27.5 °C 72.4 °F /  22.4 °C 30.02in /  1016.5hPa SE 4.0mph /  6.4km/h 6.0mph /  9.7km/h 74% 0.00in /  0mm
10:38 81.9 °F /  27.7 °C 72.4 °F /  22.4 °C 30.03in /  1016.8hPa SSE 7.0mph /  11.3km/h 9.0mph /  14.5km/h 73% 0.00in /  0mm
10:43 82.1 °F /  27.8 °C 72.2 °F /  22.3 °C 30.03in /  1016.8hPa SSW 7.0mph /  11.3km/h 8.0mph /  12.9km/h 72% 0.00in /  0mm
10:48 82.1 °F /  27.8 °C 72.2 °F /  22.3 °C 30.03in /  1016.8hPa SE 6.0mph /  9.7km/h 10.0mph /  16.1km/h 72% 0.00in /  0mm
10:53 82.3 °F /  27.9 °C 72.4 °F /  22.4 °C 30.02in /  1016.5hPa SSE 4.0mph /  6.4km/h 8.0mph /  12.9km/h 72% 0.00in /  0mm
10:58 82.9 °F /  28.3 °C 72.5 °F /  22.5 °C 30.02in /  1016.5hPa SE 7.0mph /  11.3km/h 12.0mph /  19.3km/h 71% 0.00in /  0mm
11:03 83.2 °F /  28.4 °C 73.2 °F /  22.9 °C 30.02in /  1016.5hPa South 6.0mph /  9.7km/h 10.0mph /  16.1km/h 72% 0.00in /  0mm
11:08 83.6 °F /  28.7 °C 72.8 °F /  22.7 °C 30.02in /  1016.5hPa SE 12.0mph /  19.3km/h 13.0mph /  20.9km/h 70% 0.00in /  0mm
11:13 83.2 °F /  28.4 °C 72.8 °F /  22.7 °C 30.02in /  1016.5hPa ESE 6.0mph /  9.7km/h 13.0mph /  20.9km/h 71% 0.00in /  0mm
11:18 83.3 °F /  28.5 °C 72.9 °F /  22.7 °C 30.02in /  1016.5hPa SSE 11.0mph /  17.7km/h 15.0mph /  24.1km/h 71% 0.00in /  0mm
11:23 83.6 °F /  28.7 °C 72.8 °F /  22.7 °C 30.03in /  1016.8hPa SSE 6.0mph /  9.7km/h 12.0mph /  19.3km/h 70% 0.00in /  0mm
11:28 84.3 °F /  29.1 °C 73.0 °F /  22.8 °C 30.03in /  1016.8hPa SSE 8.0mph /  12.9km/h 11.0mph /  17.7km/h 69% 0.00in /  0mm
11:33 85.2 °F /  29.6 °C 73.0 °F /  22.8 °C 30.03in /  1016.8hPa SE 9.0mph /  14.5km/h 13.0mph /  20.9km/h 67% 0.00in /  0mm
11:38 85.8 °F /  29.9 °C 73.6 °F /  23.1 °C 30.03in /  1016.8hPa SSW 4.0mph /  6.4km/h 8.0mph /  12.9km/h 67% 0.00in /  0mm
11:43 86.3 °F /  30.2 °C 72.7 °F /  22.6 °C 30.03in /  1016.8hPa SSE 12.0mph /  19.3km/h 13.0mph /  20.9km/h 64% 0.00in /  0mm
11:48 85.8 °F /  29.9 °C 72.7 °F /  22.6 °C 30.03in /  1016.8hPa SSE 8.0mph /  12.9km/h 14.0mph /  22.5km/h 65% 0.00in /  0mm
11:53 85.6 °F /  29.8 °C 73.4 °F /  23 °C 30.03in /  1016.8hPa ESE 5.0mph /  8km/h 12.0mph /  19.3km/h 67% 0.00in /  0mm
11:58 85.5 °F /  29.7 °C 73.3 °F /  22.9 °C 30.03in /  1016.8hPa SSE 8.0mph /  12.9km/h 13.0mph /  20.9km/h 67% 0.00in /  0mm
12:03 85.4 °F /  29.7 °C 73.6 °F /  23.1 °C 30.03in /  1016.8hPa SW 5.0mph /  8km/h 13.0mph /  20.9km/h 68% 0.00in /  0mm
12:08 85.3 °F /  29.6 °C 74.0 °F /  23.3 °C 30.03in /  1016.8hPa South 5.0mph /  8km/h 13.0mph /  20.9km/h 69% 0.00in /  0mm
12:13 85.1 °F /  29.5 °C 74.2 °F /  23.4 °C 30.03in /  1016.8hPa SW 7.0mph /  11.3km/h 9.0mph /  14.5km/h 70% 0.00in /  0mm
12:18 85.1 °F /  29.5 °C 74.2 °F /  23.4 °C 30.03in /  1016.8hPa WSW 5.0mph /  8km/h 11.0mph /  17.7km/h 70% 0.00in /  0mm
12:23 85.0 °F /  29.4 °C 73.7 °F /  23.2 °C 30.03in /  1016.8hPa SSW 5.0mph /  8km/h 9.0mph /  14.5km/h 69% 0.00in /  0mm
12:28 85.2 °F /  29.6 °C 74.3 °F /  23.5 °C 30.03in /  1016.8hPa SSE 4.0mph /  6.4km/h 9.0mph /  14.5km/h 70% 0.00in /  0mm
12:33 85.9 °F /  29.9 °C 74.6 °F /  23.7 °C 30.02in /  1016.5hPa WSW 8.0mph /  12.9km/h 8.0mph /  12.9km/h 69% 0.00in /  0mm
12:38 86.0 °F /  30 °C 74.2 °F /  23.4 °C 30.02in /  1016.5hPa SW 8.0mph /  12.9km/h 9.0mph /  14.5km/h 68% 0.00in /  0mm
12:43 86.2 °F /  30.1 °C 74.4 °F /  23.6 °C 30.02in /  1016.5hPa SSW 4.0mph /  6.4km/h 9.0mph /  14.5km/h 68% 0.00in /  0mm
12:48 86.4 °F /  30.2 °C 74.2 °F /  23.4 °C 30.02in /  1016.5hPa SW 2.0mph /  3.2km/h 9.0mph /  14.5km/h 67% 0.00in /  0mm
12:53 86.8 °F /  30.4 °C 74.1 °F /  23.4 °C 30.02in /  1016.5hPa West 6.0mph /  9.7km/h 10.0mph /  16.1km/h 66% 0.00in /  0mm
12:59 86.9 °F /  30.5 °C 74.6 °F /  23.7 °C 30.02in /  1016.5hPa WSW 7.0mph /  11.3km/h 11.0mph /  17.7km/h 67% 0.00in /  0mm
13:04 86.6 °F /  30.3 °C 74.3 °F /  23.5 °C 30.02in /  1016.5hPa WSW 5.0mph /  8km/h 6.0mph /  9.7km/h 67% 0.00in /  0mm
13:09 87.4 °F /  30.8 °C 74.2 °F /  23.4 °C 30.02in /  1016.5hPa SW 7.0mph /  11.3km/h 8.0mph /  12.9km/h 65% 0.00in /  0mm
13:14 87.2 °F /  30.7 °C 73.6 °F /  23.1 °C 30.01in /  1016.1hPa SW 7.0mph /  11.3km/h 12.0mph /  19.3km/h 64% 0.00in /  0mm
13:19 87.1 °F /  30.6 °C 73.4 °F /  23 °C 30.01in /  1016.1hPa SW 4.0mph /  6.4km/h 10.0mph /  16.1km/h 64% 0.00in /  0mm
13:24 87.4 °F /  30.8 °C 74.2 °F /  23.4 °C 30.01in /  1016.1hPa SSE 2.0mph /  3.2km/h 8.0mph /  12.9km/h 65% 0.00in /  0mm
13:29 87.7 °F /  30.9 °C 74.5 °F /  23.6 °C 30.01in /  1016.1hPa WSW 8.0mph /  12.9km/h 9.0mph /  14.5km/h 65% 0.00in /  0mm
13:34 87.6 °F /  30.9 °C 74.4 °F /  23.6 °C 30.01in /  1016.1hPa SW 8.0mph /  12.9km/h 12.0mph /  19.3km/h 65% 0.00in /  0mm
13:39 87.9 °F /  31.1 °C 74.2 °F /  23.4 °C 30.01in /  1016.1hPa South 4.0mph /  6.4km/h 9.0mph /  14.5km/h 64% 0.00in /  0mm
13:44 88.3 °F /  31.3 °C 74.6 °F /  23.7 °C 30.00in /  1015.8hPa SSW 5.0mph /  8km/h 10.0mph /  16.1km/h 64% 0.00in /  0mm
13:49 88.6 °F /  31.4 °C 73.9 °F /  23.3 °C 30.01in /  1016.1hPa SSE 7.0mph /  11.3km/h 10.0mph /  16.1km/h 62% 0.00in /  0mm
13:54 88.6 °F /  31.4 °C 73.4 °F /  23 °C 30.00in /  1015.8hPa SSW 9.0mph /  14.5km/h 10.0mph /  16.1km/h 61% 0.00in /  0mm
13:59 88.3 °F /  31.3 °C 73.2 °F /  22.9 °C 30.00in /  1015.8hPa SSW 5.0mph /  8km/h 12.0mph /  19.3km/h 61% 0.00in /  0mm
14:04 88.4 °F /  31.3 °C 72.8 °F /  22.7 °C 30.00in /  1015.8hPa South 9.0mph /  14.5km/h 10.0mph /  16.1km/h 60% 0.00in /  0mm
14:09 88.1 °F /  31.2 °C 72.5 °F /  22.5 °C 30.00in /  1015.8hPa SW 8.0mph /  12.9km/h 11.0mph /  17.7km/h 60% 0.00in /  0mm
14:14 88.1 °F /  31.2 °C 72.5 °F /  22.5 °C 30.00in /  1015.8hPa SW 5.0mph /  8km/h 10.0mph /  16.1km/h 60% 0.00in /  0mm
14:19 88.1 °F /  31.2 °C 72.5 °F /  22.5 °C 30.00in /  1015.8hPa SSE 3.0mph /  4.8km/h 10.0mph /  16.1km/h 60% 0.00in /  0mm
14:24 88.3 °F /  31.3 °C 72.7 °F /  22.6 °C 30.00in /  1015.8hPa SW 5.0mph /  8km/h 10.0mph /  16.1km/h 60% 0.00in /  0mm
14:29 88.4 °F /  31.3 °C 73.2 °F /  22.9 °C 30.00in /  1015.8hPa SSW 9.0mph /  14.5km/h 10.0mph /  16.1km/h 61% 0.00in /  0mm
14:34 89.0 °F /  31.7 °C 72.8 °F /  22.7 °C 30.00in /  1015.8hPa SSE 5.0mph /  8km/h 8.0mph /  12.9km/h 59% 0.00in /  0mm
14:39 89.2 °F /  31.8 °C 72.5 °F /  22.5 °C 29.99in /  1015.5hPa SSW 3.0mph /  4.8km/h 7.0mph /  11.3km/h 58% 0.00in /  0mm
14:44 89.5 °F /  31.9 °C 72.8 °F /  22.7 °C 29.99in /  1015.5hPa SE 7.0mph /  11.3km/h 9.0mph /  14.5km/h 58% 0.00in /  0mm
14:49 89.8 °F /  32.1 °C 74.1 °F /  23.4 °C 29.99in /  1015.5hPa South 4.0mph /  6.4km/h 9.0mph /  14.5km/h 60% 0.00in /  0mm
14:54 90.1 °F /  32.3 °C 73.3 °F /  22.9 °C 29.99in /  1015.5hPa SSW 7.0mph /  11.3km/h 8.0mph /  12.9km/h 58% 0.00in /  0mm
14:59 90.2 °F /  32.3 °C 73.4 °F /  23 °C 29.99in /  1015.5hPa SW 4.0mph /  6.4km/h 8.0mph /  12.9km/h 58% 0.00in /  0mm
15:04 90.6 °F /  32.6 °C 73.8 °F /  23.2 °C 29.99in /  1015.5hPa SSW 1.0mph /  1.6km/h 5.0mph /  8km/h 58% 0.00in /  0mm
15:09 91.0 °F /  32.8 °C 73.1 °F /  22.8 °C 29.98in /  1015.1hPa WSW 2.0mph /  3.2km/h 9.0mph /  14.5km/h 56% 0.00in /  0mm
15:14 91.0 °F /  32.8 °C 73.7 °F /  23.2 °C 29.98in /  1015.1hPa South 2.0mph /  3.2km/h 8.0mph /  12.9km/h 57% 0.00in /  0mm
15:19 91.1 °F /  32.8 °C 72.7 °F /  22.6 °C 29.98in /  1015.1hPa SSW 2.0mph /  3.2km/h 8.0mph /  12.9km/h 55% 0.00in /  0mm
15:24 91.1 °F /  32.8 °C 72.2 °F /  22.3 °C 29.97in /  1014.8hPa South 8.0mph /  12.9km/h 12.0mph /  19.3km/h 54% 0.00in /  0mm
15:29 91.9 °F /  33.3 °C 72.9 °F /  22.7 °C 29.97in /  1014.8hPa WSW 6.0mph /  9.7km/h 8.0mph /  12.9km/h 54% 0.00in /  0mm
15:34 92.2 °F /  33.4 °C 72.1 °F /  22.3 °C 29.97in /  1014.8hPa SW 7.0mph /  11.3km/h 11.0mph /  17.7km/h 52% 0.00in /  0mm
15:39 92.4 °F /  33.6 °C 71.7 °F /  22.1 °C 29.97in /  1014.8hPa SW 6.0mph /  9.7km/h 8.0mph /  12.9km/h 51% 0.00in /  0mm
15:44 91.9 °F /  33.3 °C 72.3 °F /  22.4 °C 29.97in /  1014.8hPa SSW 7.0mph /  11.3km/h 9.0mph /  14.5km/h 53% 0.00in /  0mm
15:50 91.8 °F /  33.2 °C 69.9 °F /  21.1 °C 29.97in /  1014.8hPa WSW 7.0mph /  11.3km/h 10.0mph /  16.1km/h 49% 0.00in /  0mm
15:54 92.0 °F /  33.3 °C 70.1 °F /  21.2 °C 29.97in /  1014.8hPa SW 9.0mph /  14.5km/h 11.0mph /  17.7km/h 49% 0.00in /  0mm
16:00 92.2 °F /  33.4 °C 70.3 °F /  21.3 °C 29.97in /  1014.8hPa SW 9.0mph /  14.5km/h 10.0mph /  16.1km/h 49% 0.00in /  0mm
16:05 92.6 °F /  33.7 °C 70.7 °F /  21.5 °C 29.96in /  1014.4hPa SW 7.0mph /  11.3km/h 9.0mph /  14.5km/h 49% 0.00in /  0mm
16:10 92.7 °F /  33.7 °C 71.3 °F /  21.8 °C 29.96in /  1014.4hPa SW 5.0mph /  8km/h 10.0mph /  16.1km/h 50% 0.00in /  0mm
16:15 92.7 °F /  33.7 °C 70.2 °F /  21.2 °C 29.96in /  1014.4hPa SSW 5.0mph /  8km/h 11.0mph /  17.7km/h 48% 0.00in /  0mm
16:20 93.3 °F /  34.1 °C 70.1 °F /  21.2 °C 29.96in /  1014.4hPa SSE 8.0mph /  12.9km/h 10.0mph /  16.1km/h 47% 0.00in /  0mm
16:25 93.7 °F /  34.3 °C 69.8 °F /  21 °C 29.95in /  1014.1hPa SE 9.0mph /  14.5km/h 12.0mph /  19.3km/h 46% 0.00in /  0mm
16:30 93.8 °F /  34.3 °C 69.3 °F /  20.7 °C 29.95in /  1014.1hPa SSW 5.0mph /  8km/h 7.0mph /  11.3km/h 45% 0.00in /  0mm
16:35 93.8 °F /  34.3 °C 69.3 °F /  20.7 °C 29.94in /  1013.8hPa SSE 7.0mph /  11.3km/h 10.0mph /  16.1km/h 45% 0.00in /  0mm
16:40 94.0 °F /  34.4 °C 68.8 °F /  20.4 °C 29.94in /  1013.8hPa SSW 6.0mph /  9.7km/h 11.0mph /  17.7km/h 44% 0.00in /  0mm
16:45 93.9 °F /  34.4 °C 68.7 °F /  20.4 °C 29.94in /  1013.8hPa SW 9.0mph /  14.5km/h 10.0mph /  16.1km/h 44% 0.00in /  0mm
16:50 93.8 °F /  34.3 °C 67.2 °F /  19.6 °C 29.93in /  1013.4hPa West 7.0mph /  11.3km/h 10.0mph /  16.1km/h 42% 0.00in /  0mm
16:55 94.5 °F /  34.7 °C 67.9 °F /  19.9 °C 29.93in /  1013.4hPa SSW 4.0mph /  6.4km/h 8.0mph /  12.9km/h 42% 0.00in /  0mm
17:00 94.7 °F /  34.8 °C 67.4 °F /  19.7 °C 29.93in /  1013.4hPa SW 7.0mph /  11.3km/h 8.0mph /  12.9km/h 41% 0.00in /  0mm
17:05 94.7 °F /  34.8 °C 66.6 °F /  19.2 °C 29.93in /  1013.4hPa SW 7.0mph /  11.3km/h 8.0mph /  12.9km/h 40% 0.00in /  0mm
17:10 94.6 °F /  34.8 °C 66.6 °F /  19.2 °C 29.93in /  1013.4hPa SW 6.0mph /  9.7km/h 10.0mph /  16.1km/h 40% 0.00in /  0mm
17:15 94.8 °F /  34.9 °C 66.7 °F /  19.3 °C 29.93in /  1013.4hPa SSW 7.0mph /  11.3km/h 11.0mph /  17.7km/h 40% 0.00in /  0mm
17:20 94.8 °F /  34.9 °C 66.0 °F /  18.9 °C 29.93in /  1013.4hPa SW 9.0mph /  14.5km/h 11.0mph /  17.7km/h 39% 0.00in /  0mm
17:25 94.6 °F /  34.8 °C 66.6 °F /  19.2 °C 29.94in /  1013.8hPa WSW 5.0mph /  8km/h 8.0mph /  12.9km/h 40% 0.00in /  0mm
17:30 94.8 °F /  34.9 °C 66.7 °F /  19.3 °C 29.93in /  1013.4hPa West 7.0mph /  11.3km/h 7.0mph /  11.3km/h 40% 0.00in /  0mm
17:35 95.1 °F /  35.1 °C 67.7 °F /  19.8 °C 29.93in /  1013.4hPa SSW 3.0mph /  4.8km/h 5.0mph /  8km/h 41% 0.00in /  0mm
17:40 95.5 °F /  35.3 °C 66.6 °F /  19.2 °C 29.92in /  1013.1hPa SW 4.0mph /  6.4km/h 7.0mph /  11.3km/h 39% 0.00in /  0mm
17:45 95.2 °F /  35.1 °C 67.8 °F /  19.9 °C 29.92in /  1013.1hPa WNW 6.0mph /  9.7km/h 10.0mph /  16.1km/h 41% 0.00in /  0mm
17:50 94.6 °F /  34.8 °C 68.0 °F /  20 °C 29.92in /  1013.1hPa WSW 4.0mph /  6.4km/h 10.0mph /  16.1km/h 42% 0.00in /  0mm
17:55 94.4 °F /  34.7 °C 67.1 °F /  19.5 °C 29.92in /  1013.1hPa WNW 4.0mph /  6.4km/h 9.0mph /  14.5km/h 41% 0.00in /  0mm
18:00 94.5 °F /  34.7 °C 67.2 °F /  19.6 °C 29.91in /  1012.8hPa WSW 6.0mph /  9.7km/h 16.0mph /  25.7km/h 41% 0.00in /  0mm
18:05 93.9 °F /  34.4 °C 67.3 °F /  19.6 °C 29.91in /  1012.8hPa South 1.0mph /  1.6km/h 6.0mph /  9.7km/h 42% 0.00in /  0mm
18:10 94.4 °F /  34.7 °C 67.8 °F /  19.9 °C 29.91in /  1012.8hPa SSW 3.0mph /  4.8km/h 8.0mph /  12.9km/h 42% 0.00in /  0mm
18:15 94.3 °F /  34.6 °C 67.7 °F /  19.8 °C 29.91in /  1012.8hPa SSE 3.0mph /  4.8km/h 10.0mph /  16.1km/h 42% 0.00in /  0mm
18:20 94.6 °F /  34.8 °C 68.7 °F /  20.4 °C 29.91in /  1012.8hPa SW 8.0mph /  12.9km/h 11.0mph /  17.7km/h 43% 0.00in /  0mm
18:25 95.0 °F /  35 °C 67.6 °F /  19.8 °C 29.91in /  1012.8hPa WSW 1.0mph /  1.6km/h 4.0mph /  6.4km/h 41% 0.00in /  0mm
18:30 95.0 °F /  35 °C 67.6 °F /  19.8 °C 29.91in /  1012.8hPa SW 4.0mph /  6.4km/h 7.0mph /  11.3km/h 41% 0.00in /  0mm
18:35 95.1 °F /  35.1 °C 68.4 °F /  20.2 °C 29.90in /  1012.4hPa South 6.0mph /  9.7km/h 7.0mph /  11.3km/h 42% 0.00in /  0mm
18:40 95.0 °F /  35 °C 69.0 °F /  20.6 °C 29.91in /  1012.8hPa SW 7.0mph /  11.3km/h 8.0mph /  12.9km/h 43% 0.00in /  0mm
18:45 94.5 °F /  34.7 °C 68.6 °F /  20.3 °C 29.91in /  1012.8hPa SW 5.0mph /  8km/h 10.0mph /  16.1km/h 43% 0.00in /  0mm
18:50 94.4 °F /  34.7 °C 68.5 °F /  20.3 °C 29.91in /  1012.8hPa WSW 5.0mph /  8km/h 8.0mph /  12.9km/h 43% 0.00in /  0mm
18:55 94.7 °F /  34.8 °C 68.7 °F /  20.4 °C 29.91in /  1012.8hPa SW 7.0mph /  11.3km/h 7.0mph /  11.3km/h 43% 0.00in /  0mm
19:00 94.6 °F /  34.8 °C 68.7 °F /  20.4 °C 29.91in /  1012.8hPa SSW 2.0mph /  3.2km/h 6.0mph /  9.7km/h 43% 0.00in /  0mm
19:05 94.7 °F /  34.8 °C 68.1 °F /  20.1 °C 29.91in /  1012.8hPa SW 1.0mph /  1.6km/h 4.0mph /  6.4km/h 42% 0.00in /  0mm
19:10 94.6 °F /  34.8 °C 68.7 °F /  20.4 °C 29.91in /  1012.8hPa SW 8.0mph /  12.9km/h 14.0mph /  22.5km/h 43% 0.00in /  0mm
19:15 94.1 °F /  34.5 °C 68.9 °F /  20.5 °C 29.91in /  1012.8hPa SW 4.0mph /  6.4km/h 6.0mph /  9.7km/h 44% 0.00in /  0mm
19:21 93.8 °F /  34.3 °C 68.6 °F /  20.3 °C 29.91in /  1012.8hPa West 1.0mph /  1.6km/h 4.0mph /  6.4km/h 44% 0.00in /  0mm
19:26 93.8 °F /  34.3 °C 68.6 °F /  20.3 °C 29.91in /  1012.8hPa WSW 5.0mph /  8km/h 6.0mph /  9.7km/h 44% 0.00in /  0mm
19:31 93.7 °F /  34.3 °C 69.2 °F /  20.7 °C 29.91in /  1012.8hPa West 6.0mph /  9.7km/h 7.0mph /  11.3km/h 45% 0.00in /  0mm
19:36 93.4 °F /  34.1 °C 68.9 °F /  20.5 °C 29.91in /  1012.8hPa SSW 5.0mph /  8km/h 8.0mph /  12.9km/h 45% 0.00in /  0mm
19:41 93.2 °F /  34 °C 68.7 °F /  20.4 °C 29.91in /  1012.8hPa WSW 4.0mph /  6.4km/h 8.0mph /  12.9km/h 45% 0.00in /  0mm
19:46 92.9 °F /  33.8 °C 69.7 °F /  20.9 °C 29.91in /  1012.8hPa WSW 2.0mph /  3.2km/h 5.0mph /  8km/h 47% 0.00in /  0mm
19:51 93.0 °F /  33.9 °C 69.8 °F /  21 °C 29.91in /  1012.8hPa SW 3.0mph /  4.8km/h 4.0mph /  6.4km/h 47% 0.00in /  0mm
19:56 92.8 °F /  33.8 °C 69.6 °F /  20.9 °C 29.92in /  1013.1hPa WSW 3.0mph /  4.8km/h 5.0mph /  8km/h 47% 0.00in /  0mm
20:01 92.4 °F /  33.6 °C 69.3 °F /  20.7 °C 29.92in /  1013.1hPa West 3.0mph /  4.8km/h 4.0mph /  6.4km/h 47% 0.00in /  0mm
20:06 92.0 °F /  33.3 °C 69.5 °F /  20.8 °C 29.92in /  1013.1hPa West 1.0mph /  1.6km/h 2.0mph /  3.2km/h 48% 0.00in /  0mm
20:11 91.9 °F /  33.3 °C 69.4 °F /  20.8 °C 29.92in /  1013.1hPa Calm   2.0mph /  3.2km/h 48% 0.00in /  0mm
20:16 91.7 °F /  33.2 °C 69.8 °F /  21 °C 29.92in /  1013.1hPa South 2.0mph /  3.2km/h 2.0mph /  3.2km/h 49% 0.00in /  0mm
20:21 91.5 °F /  33.1 °C 69.7 °F /  20.9 °C 29.92in /  1013.1hPa SSW 1.0mph /  1.6km/h 1.0mph /  1.6km/h 49% 0.00in /  0mm
20:26 91.2 °F /  32.9 °C 70.0 °F /  21.1 °C 29.92in /  1013.1hPa SE 1.0mph /  1.6km/h 1.0mph /  1.6km/h 50% 0.00in /  0mm
20:31 91.1 °F /  32.8 °C 69.9 °F /  21.1 °C 29.92in /  1013.1hPa Calm   1.0mph /  1.6km/h 50% 0.00in /  0mm
20:36 91.1 °F /  32.8 °C 70.5 °F /  21.4 °C 29.92in /  1013.1hPa Calm   1.0mph /  1.6km/h 51% 0.00in /  0mm
20:41 91.0 °F /  32.8 °C 70.4 °F /  21.3 °C 29.92in /  1013.1hPa Calm     51% 0.00in /  0mm
20:47 90.8 °F /  32.7 °C 70.8 °F /  21.6 °C 29.92in /  1013.1hPa NE 1.0mph /  1.6km/h 2.0mph /  3.2km/h 52% 0.00in /  0mm
20:52 89.7 °F /  32.1 °C 69.8 °F /  21 °C 29.92in /  1013.1hPa ESE 2.0mph /  3.2km/h 3.0mph /  4.8km/h 52% 0.00in /  0mm
20:57 88.9 °F /  31.6 °C 69.6 °F /  20.9 °C 29.92in /  1013.1hPa ESE 3.0mph /  4.8km/h 4.0mph /  6.4km/h 53% 0.00in /  0mm
21:02 88.3 °F /  31.3 °C 70.1 °F /  21.2 °C 29.92in /  1013.1hPa SE 2.0mph /  3.2km/h 3.0mph /  4.8km/h 55% 0.00in /  0mm
21:07 87.6 °F /  30.9 °C 70.0 °F /  21.1 °C 29.92in /  1013.1hPa SE 2.0mph /  3.2km/h 3.0mph /  4.8km/h 56% 0.00in /  0mm
21:12 87.0 °F /  30.6 °C 69.9 °F /  21.1 °C 29.92in /  1013.1hPa East 1.0mph /  1.6km/h 2.0mph /  3.2km/h 57% 0.00in /  0mm
21:17 86.6 °F /  30.3 °C 70.1 °F /  21.2 °C 29.92in /  1013.1hPa SE 1.0mph /  1.6km/h 2.0mph /  3.2km/h 58% 0.00in /  0mm
21:22 86.0 °F /  30 °C 70.0 °F /  21.1 °C 29.92in /  1013.1hPa ENE 2.0mph /  3.2km/h 3.0mph /  4.8km/h 59% 0.00in /  0mm
21:27 85.7 °F /  29.8 °C 69.7 °F /  20.9 °C 29.92in /  1013.1hPa Calm   1.0mph /  1.6km/h 59% 0.00in /  0mm
21:32 85.3 °F /  29.6 °C 69.8 °F /  21 °C 29.92in /  1013.1hPa SE 1.0mph /  1.6km/h 1.0mph /  1.6km/h 60% 0.00in /  0mm
21:37 85.2 °F /  29.6 °C 69.8 °F /  21 °C 29.92in /  1013.1hPa East 1.0mph /  1.6km/h 2.0mph /  3.2km/h 60% 0.00in /  0mm
21:42 84.9 °F /  29.4 °C 70.0 °F /  21.1 °C 29.92in /  1013.1hPa SE 1.0mph /  1.6km/h 2.0mph /  3.2km/h 61% 0.00in /  0mm
21:47 84.4 °F /  29.1 °C 70.0 °F /  21.1 °C 29.92in /  1013.1hPa Calm   1.0mph /  1.6km/h 62% 0.00in /  0mm
21:52 83.9 °F /  28.8 °C 70.0 °F /  21.1 °C 29.93in /  1013.4hPa Calm     63% 0.00in /  0mm
21:57 83.5 °F /  28.6 °C 69.6 °F /  20.9 °C 29.93in /  1013.4hPa Calm     63% 0.00in /  0mm
22:02 83.3 °F /  28.5 °C 69.9 °F /  21.1 °C 29.93in /  1013.4hPa ESE 1.0mph /  1.6km/h 1.0mph /  1.6km/h 64% 0.00in /  0mm
22:07 83.0 °F /  28.3 °C 70.0 °F /  21.1 °C 29.93in /  1013.4hPa ESE 1.0mph /  1.6km/h 1.0mph /  1.6km/h 65% 0.00in /  0mm
22:12 82.9 °F /  28.3 °C 69.9 °F /  21.1 °C 29.93in /  1013.4hPa SE 1.0mph /  1.6km/h 1.0mph /  1.6km/h 65% 0.00in /  0mm
22:17 82.8 °F /  28.2 °C 69.8 °F /  21 °C 29.94in /  1013.8hPa SE 1.0mph /  1.6km/h 1.0mph /  1.6km/h 65% 0.00in /  0mm
22:22 82.8 °F /  28.2 °C 69.8 °F /  21 °C 29.94in /  1013.8hPa Calm   1.0mph /  1.6km/h 65% 0.00in /  0mm
22:27 82.5 °F /  28.1 °C 69.6 °F /  20.9 °C 29.94in /  1013.8hPa Calm     65% 0.00in /  0mm
22:32 82.3 °F /  27.9 °C 69.4 °F /  20.8 °C 29.94in /  1013.8hPa Calm     65% 0.00in /  0mm
22:37 82.2 °F /  27.9 °C 69.3 °F /  20.7 °C 29.94in /  1013.8hPa Calm     65% 0.00in /  0mm
22:42 82.1 °F /  27.8 °C 69.6 °F /  20.9 °C 29.94in /  1013.8hPa SE 1.0mph /  1.6km/h 1.0mph /  1.6km/h 66% 0.00in /  0mm
22:47 82.0 °F /  27.8 °C 69.5 °F /  20.8 °C 29.95in /  1014.1hPa Calm     66% 0.00in /  0mm
22:52 81.2 °F /  27.3 °C 69.2 °F /  20.7 °C 29.95in /  1014.1hPa Calm     67% 0.00in /  0mm
22:57 80.7 °F /  27.1 °C 69.6 °F /  20.9 °C 29.95in /  1014.1hPa Calm   2.0mph /  3.2km/h 69% 0.00in /  0mm
23:02 80.1 °F /  26.7 °C 69.4 °F /  20.8 °C 29.95in /  1014.1hPa Calm     70% 0.00in /  0mm
23:07 79.6 °F /  26.4 °C 69.4 °F /  20.8 °C 29.95in /  1014.1hPa Calm     71% 0.00in /  0mm
23:12 79.0 °F /  26.1 °C 69.2 °F /  20.7 °C 29.95in /  1014.1hPa Calm     72% 0.00in /  0mm
23:17 78.5 °F /  25.8 °C 68.7 °F /  20.4 °C 29.95in /  1014.1hPa Calm     72% 0.00in /  0mm
23:22 78.1 °F /  25.6 °C 69.1 °F /  20.6 °C 29.95in /  1014.1hPa Calm     74% 0.00in /  0mm
23:27 77.9 °F /  25.5 °C 68.9 °F /  20.5 °C 29.96in /  1014.4hPa Calm     74% 0.00in /  0mm
23:32 78.3 °F /  25.7 °C 68.5 °F /  20.3 °C 29.96in /  1014.4hPa Calm     72% 0.00in /  0mm
23:37 78.9 °F /  26.1 °C 68.3 °F /  20.2 °C 29.96in /  1014.4hPa Calm     70% 0.00in /  0mm
23:43 78.8 °F /  26 °C 68.6 °F /  20.3 °C 29.96in /  1014.4hPa East 1.0mph /  1.6km/h 1.0mph /  1.6km/h 71% 0.00in /  0mm
23:48 78.7 °F /  25.9 °C 68.9 °F /  20.5 °C 29.96in /  1014.4hPa East 1.0mph /  1.6km/h 1.0mph /  1.6km/h 72% 0.00in /  0mm
23:53 78.6 °F /  25.9 °C 69.2 °F /  20.7 °C 29.97in /  1014.8hPa NE 2.0mph /  3.2km/h 2.0mph /  3.2km/h 73% 0.00in /  0mm
23:58 78.2 °F /  25.7 °C 68.8 °F /  20.4 °C 29.97in /  1014.8hPa NE 2.0mph /  3.2km/h 3.0mph /  4.8km/h 73% 0.00in /  0mm
Compliments of Weather Underground